Time;durP1;ratioP1;P1;durP2;ratioP2;P2;SDS_P1;SDS_P2;PMS_P1;PMS_P2;Temp;Humidity;BMP_temperature;BMP_pressure;BME280_temperature;BME280_humidity;BME280_pressure;Samples;Min_cycle;Max_cycle;Signal;HPM_P1;HPM_P2
2021/05/09 00:02:12;;;;;;;4.00;1.50;;;;;;;10.61;59.89;95901.97;5062206;28;20020;-81
2021/05/09 00:04:38;;;;;;;3.73;1.70;;;;;;;10.59;59.69;95903.94;5062132;28;20044;-82
2021/05/09 00:07:06;;;;;;;4.03;1.70;;;;;;;10.52;59.87;95900.34;5054791;28;20025;-82
2021/05/09 00:09:31;;;;;;;5.83;1.60;;;;;;;10.48;60.09;95898.22;5067669;28;20063;-81
2021/05/09 00:11:57;;;;;;;4.13;1.87;;;;;;;10.44;60.41;95905.63;5055911;28;20114;-82
2021/05/09 00:14:24;;;;;;;4.33;2.00;;;;;;;10.34;60.74;95899.72;5061174;28;20401;-81
2021/05/09 00:16:50;;;;;;;3.67;1.70;;;;;;;10.30;61.19;95893.97;5053195;28;20013;-82
2021/05/09 00:19:15;;;;;;;4.00;1.87;;;;;;;10.26;60.96;95892.69;5062380;28;20085;-81
2021/05/09 00:21:41;;;;;;;4.43;1.70;;;;;;;10.21;61.51;95894.13;5069741;28;20025;-82
2021/05/09 00:24:07;;;;;;;3.97;1.70;;;;;;;10.12;61.57;95891.47;5055442;28;20029;-82
2021/05/09 00:26:34;;;;;;;3.33;1.60;;;;;;;10.18;61.48;95889.19;5057025;28;20036;-81
2021/05/09 00:29:00;;;;;;;3.40;1.50;;;;;;;10.13;61.91;95893.16;5065581;28;20518;-80
2021/05/09 00:31:26;;;;;;;5.67;2.27;;;;;;;10.04;61.93;95894.13;5054341;28;20021;-81
2021/05/09 00:33:52;;;;;;;4.10;1.90;;;;;;;10.00;61.92;95886.75;5055225;28;20063;-82
2021/05/09 00:36:18;;;;;;;4.70;2.00;;;;;;;10.04;62.25;95893.31;5063897;28;20075;-82
2021/05/09 00:38:43;;;;;;;5.40;2.30;;;;;;;9.97;62.32;95887.06;5062149;28;20032;-82
2021/05/09 00:41:09;;;;;;;3.80;1.70;;;;;;;10.01;62.37;95878.69;5065018;28;20086;-81
2021/05/09 00:43:35;;;;;;;5.07;1.67;;;;;;;9.90;62.27;95871.97;5053671;28;20025;-82
2021/05/09 00:46:00;;;;;;;5.23;1.80;;;;;;;9.96;62.55;95877.53;5061672;28;20478;-81
2021/05/09 00:48:27;;;;;;;4.13;1.73;;;;;;;9.89;62.49;95877.34;5058951;28;20056;-82
2021/05/09 00:50:52;;;;;;;3.13;1.77;;;;;;;9.85;62.62;95870.78;5066204;28;20032;-81
2021/05/09 00:53:23;;;;;;;3.97;1.80;;;;;;;9.88;62.60;95868.66;5051806;28;20072;-82
2021/05/09 00:55:51;;;;;;;3.67;2.03;;;;;;;9.82;62.71;95868.50;5060661;28;20037;-81
2021/05/09 00:58:18;;;;;;;4.17;1.63;;;;;;;9.73;62.86;95864.25;5052438;28;20560;-81
2021/05/09 01:00:46;;;;;;;3.03;1.50;;;;;;;9.72;63.21;95859.94;5064355;28;20032;-81
2021/05/09 01:03:14;;;;;;;2.90;1.50;;;;;;;9.97;61.98;95845.84;5055972;28;20024;-81
2021/05/09 01:05:40;;;;;;;3.87;1.83;;;;;;;10.03;61.75;95850.47;5060545;28;20090;-81
2021/05/09 01:08:06;;;;;;;3.53;1.70;;;;;;;9.95;62.01;95853.06;5054708;28;20092;-81
2021/05/09 01:10:32;;;;;;;3.67;1.53;;;;;;;9.88;62.14;95838.94;5057811;28;20115;-79
2021/05/09 01:12:58;;;;;;;5.93;1.73;;;;;;;9.90;62.39;95844.88;5053385;28;20101;-81
2021/05/09 01:15:27;;;;;;;6.20;1.93;;;;;;;9.78;62.88;95852.25;5064217;28;20033;-81
2021/05/09 01:17:53;;;;;;;6.30;2.27;;;;;;;9.80;62.86;95839.78;5067394;28;20033;-81
2021/05/09 01:20:20;;;;;;;4.43;1.87;;;;;;;9.76;63.07;95838.47;5093093;28;20029;-81
2021/05/09 01:22:45;;;;;;;6.17;1.83;;;;;;;9.66;63.72;95837.81;5083096;28;20059;-81
2021/05/09 01:25:12;;;;;;;4.47;2.50;;;;;;;9.66;63.63;95838.63;5062150;28;20033;-80
2021/05/09 01:27:39;;;;;;;5.70;2.00;;;;;;;9.65;63.82;95836.97;5076382;28;20033;-81
2021/05/09 01:30:10;;;;;;;4.13;1.70;;;;;;;9.64;63.82;95831.91;5066443;28;20062;-81
2021/05/09 01:32:36;;;;;;;3.70;1.80;;;;;;;9.71;63.43;95839.94;5062776;28;20040;-81
2021/05/09 01:35:03;;;;;;;3.80;1.90;;;;;;;9.81;63.41;95824.84;5058074;28;20102;-81
2021/05/09 01:37:29;;;;;;;6.97;2.10;;;;;;;9.87;62.73;95818.94;5064086;28;20050;-81
2021/05/09 01:39:55;;;;;;;4.37;2.60;;;;;;;9.77;63.46;95813.84;5064896;28;20095;-81
2021/05/09 01:42:21;;;;;;;4.83;2.13;;;;;;;9.84;63.16;95814.00;5061352;28;20025;-82
2021/05/09 01:44:57;;;;;;;3.57;1.80;;;;;;;9.79;63.35;95816.28;5061413;28;20016;-81
2021/05/09 01:47:25;;;;;;;4.50;1.90;;;;;;;9.74;63.70;95814.19;5066057;28;20032;-82
2021/05/09 01:49:52;;;;;;;3.77;1.87;;;;;;;9.71;63.43;95813.69;5058063;28;20024;-81
2021/05/09 01:52:19;;;;;;;4.13;1.77;;;;;;;9.71;63.51;95819.75;5054309;28;20032;-81
2021/05/09 01:54:45;;;;;;;4.33;1.80;;;;;;;9.74;63.23;95821.22;5054863;28;20021;-81
2021/05/09 01:57:12;;;;;;;4.07;2.07;;;;;;;9.68;63.78;95820.06;5051880;28;20024;-81
2021/05/09 01:59:40;;;;;;;3.97;1.70;;;;;;;9.63;63.60;95817.94;5062668;28;20056;-81
2021/05/09 02:02:06;;;;;;;5.43;1.70;;;;;;;9.60;63.78;95830.59;5045642;28;20035;-81
2021/05/09 02:04:40;;;;;;;6.33;1.97;;;;;;;9.54;63.99;95829.41;5057282;28;20099;-80
2021/05/09 02:07:10;;;;;;;3.77;1.50;;;;;;;9.49;64.35;95830.88;5069627;28;20033;-81
2021/05/09 02:09:38;;;;;;;3.13;1.60;;;;;;;9.47;64.25;95828.44;5067747;28;20074;-82
2021/05/09 02:12:05;;;;;;;4.33;2.03;;;;;;;9.37;64.78;95825.13;5060980;28;20125;-81
2021/05/09 02:14:40;;;;;;;5.30;1.87;;;;;;;9.40;64.30;95832.69;5055764;28;20025;-80
2021/05/09 02:17:09;;;;;;;5.67;1.77;;;;;;;9.44;63.97;95823.50;5060487;28;20020;-82
2021/05/09 02:19:34;;;;;;;4.67;1.67;;;;;;;9.45;64.28;95825.94;5047732;28;20017;-81
2021/05/09 02:22:02;;;;;;;5.23;1.80;;;;;;;9.45;64.22;95812.84;5060979;28;20115;-81
2021/05/09 02:24:31;;;;;;;4.50;2.30;;;;;;;9.45;64.54;95819.88;5060596;28;20025;-81
2021/05/09 02:26:59;;;;;;;5.03;2.03;;;;;;;9.46;64.34;95818.94;5054032;28;20117;-81
2021/05/09 02:29:25;;;;;;;3.07;1.50;;;;;;;9.47;64.27;95823.19;5065499;28;20050;-81
2021/05/09 02:31:52;;;;;;;3.37;1.67;;;;;;;9.44;64.06;95816.44;5063203;28;20033;-82
2021/05/09 02:34:30;;;;;;;4.77;1.30;;;;;;;9.53;63.84;95814.66;5054829;28;20055;-81
2021/05/09 02:36:56;;;;;;;3.50;1.40;;;;;;;9.58;63.78;95811.53;5061342;28;20052;-81
2021/05/09 02:39:24;;;;;;;5.77;1.30;;;;;;;9.67;63.13;95808.75;5065368;28;20055;-81
2021/05/09 02:41:50;;;;;;;2.40;1.30;;;;;;;9.82;62.07;95806.28;5066222;28;20032;-81
2021/05/09 02:44:15;;;;;;;3.33;1.30;;;;;;;9.80;62.21;95803.03;5064205;28;20028;-81
2021/05/09 02:46:43;;;;;;;2.00;1.20;;;;;;;9.95;61.91;95810.22;5061261;28;20115;-81
2021/05/09 02:49:09;;;;;;;3.17;1.13;;;;;;;10.03;61.54;95812.84;5062584;28;20041;-80
2021/05/09 02:51:35;;;;;;;3.83;1.90;;;;;;;10.01;62.21;95805.13;5062300;28;20025;-82
2021/05/09 02:54:01;;;;;;;3.33;1.70;;;;;;;9.96;62.32;95802.19;5057373;28;20504;-81
2021/05/09 02:56:29;;;;;;;3.43;1.50;;;;;;;9.87;62.80;95804.00;5053710;28;20120;-81
2021/05/09 02:58:55;;;;;;;5.80;1.67;;;;;;;9.96;61.99;95807.44;5054853;28;20017;-80
2021/05/09 03:01:21;;;;;;;3.40;1.43;;;;;;;10.00;61.97;95798.25;5056191;28;20044;-81
2021/05/09 03:03:46;;;;;;;5.00;1.63;;;;;;;9.94;62.12;95804.16;5060442;28;20083;-82
2021/05/09 03:06:12;;;;;;;3.53;1.50;;;;;;;9.98;62.04;95808.09;5053514;28;20033;-81
2021/05/09 03:08:38;;;;;;;5.07;1.23;;;;;;;10.01;61.87;95805.13;5056004;28;20087;-80
2021/05/09 03:11:04;;;;;;;2.67;1.37;;;;;;;10.02;61.79;95811.19;5065691;28;20025;-81
2021/05/09 03:13:30;;;;;;;1.97;1.20;;;;;;;9.99;61.93;95807.09;5064559;28;20406;-81
2021/05/09 03:16:00;;;;;;;7.17;1.73;;;;;;;10.00;62.39;95802.69;5061189;28;20024;-81
2021/05/09 03:18:26;;;;;;;3.57;1.90;;;;;;;9.99;62.40;95807.09;5056558;28;20112;-81
2021/05/09 03:20:52;;;;;;;4.07;1.77;;;;;;;10.05;62.03;95809.06;5066636;28;20032;-81
2021/05/09 03:23:19;;;;;;;3.90;1.73;;;;;;;10.08;62.03;95811.34;5065337;28;20039;-82
2021/05/09 03:25:46;;;;;;;3.37;1.70;;;;;;;9.99;62.68;95804.47;5067420;28;20025;-81
2021/05/09 03:28:11;;;;;;;3.13;1.73;;;;;;;9.91;62.82;95804.47;5054692;28;20029;-80
2021/05/09 03:30:37;;;;;;;5.13;1.70;;;;;;;9.94;62.84;95811.22;5061628;28;20028;-81
2021/05/09 03:33:03;;;;;;;4.90;1.97;;;;;;;9.95;62.91;95802.34;5067387;28;20036;-81
2021/05/09 03:35:28;;;;;;;3.80;1.77;;;;;;;9.97;62.77;95805.63;5065843;28;20084;-80
2021/05/09 03:37:54;;;;;;;7.00;2.10;;;;;;;10.01;62.72;95813.00;5056078;28;20025;-81
2021/05/09 03:40:21;;;;;;;3.90;1.60;;;;;;;9.99;62.70;95809.72;5071218;28;20413;-81
2021/05/09 03:42:47;;;;;;;4.03;1.63;;;;;;;10.00;62.80;95813.19;5054129;28;20111;-80
2021/05/09 03:45:13;;;;;;;5.43;1.90;;;;;;;10.03;62.62;95803.16;5066634;28;20055;-81
2021/05/09 03:47:39;;;;;;;4.60;1.80;;;;;;;10.02;62.79;95808.56;5079112;28;20033;-81
2021/05/09 03:50:05;;;;;;;4.43;1.70;;;;;;;9.97;62.66;95803.81;5057477;28;20071;-83
2021/05/09 03:52:31;;;;;;;5.10;2.27;;;;;;;9.97;62.95;95803.81;5063811;28;20621;-81
2021/05/09 03:54:57;;;;;;;4.83;1.93;;;;;;;10.05;62.35;95803.81;5060023;28;20086;-81
2021/05/09 03:57:23;;;;;;;4.67;2.10;;;;;;;9.96;62.81;95801.34;5053958;28;20075;-81
2021/05/09 03:59:49;;;;;;;4.47;1.80;;;;;;;9.93;63.05;95801.72;5059640;28;20028;-81
2021/05/09 04:02:15;;;;;;;3.90;1.77;;;;;;;9.89;63.04;95795.94;5064495;28;20034;-81
2021/05/09 04:04:41;;;;;;;4.73;2.00;;;;;;;9.87;63.22;95795.31;5074254;28;20036;-81
2021/05/09 04:07:07;;;;;;;6.07;2.30;;;;;;;9.88;63.46;95792.50;5068262;28;20592;-80
2021/05/09 04:09:33;;;;;;;4.37;1.93;;;;;;;9.88;63.37;95789.06;5061826;28;20025;-81
2021/05/09 04:11:58;;;;;;;7.00;2.27;;;;;;;9.88;63.17;95795.13;5057584;28;20033;-81
2021/05/09 04:14:24;;;;;;;5.17;2.10;;;;;;;9.94;63.41;95790.22;5061878;28;20020;-81
2021/05/09 04:16:50;;;;;;;3.87;1.90;;;;;;;10.07;62.86;95785.25;5061242;28;20079;-82
2021/05/09 04:19:15;;;;;;;7.17;2.20;;;;;;;10.06;62.82;95781.81;5050986;28;20029;-81
2021/05/09 04:21:45;;;;;;;5.00;1.93;;;;;;;10.15;62.88;95786.06;5042772;28;20082;-81
2021/05/09 04:24:11;;;;;;;3.67;1.77;;;;;;;10.24;62.79;95788.69;5070092;28;20493;-81
2021/05/09 04:26:36;;;;;;;4.07;1.80;;;;;;;10.22;62.67;95783.56;5058052;28;20115;-81
2021/05/09 04:29:03;;;;;;;3.40;1.60;;;;;;;10.27;62.46;95781.31;5060447;28;20094;-81
2021/05/09 04:31:28;;;;;;;4.97;1.87;;;;;;;10.27;62.41;95788.38;5065050;28;20817;-81
2021/05/09 04:33:54;;;;;;;3.73;1.70;;;;;;;10.32;62.24;95791.31;5072406;28;20028;-81
2021/05/09 04:36:20;;;;;;;4.90;2.13;;;;;;;10.42;62.24;95791.94;5052160;28;20047;-83
2021/05/09 04:38:46;;;;;;;3.40;1.70;;;;;;;10.47;61.98;95794.06;5059453;28;20121;-81
2021/05/09 04:41:12;;;;;;;3.30;1.73;;;;;;;10.51;61.73;95790.91;5056137;28;20043;-82
2021/05/09 04:43:39;;;;;;;7.93;2.10;;;;;;;10.59;61.69;95787.44;5064667;28;20105;-81
2021/05/09 04:46:05;;;;;;;4.47;1.60;;;;;;;10.69;61.45;95777.53;5062596;28;20024;-81
2021/05/09 04:48:31;;;;;;;3.40;1.90;;;;;;;10.80;61.03;95785.06;5054987;28;20037;-84
2021/05/09 04:50:57;;;;;;;4.27;1.67;;;;;;;11.06;60.06;95782.13;5057595;28;20487;-81
2021/05/09 04:53:36;;;;;;;3.57;1.70;;;;;;;11.34;58.37;95781.63;5070126;28;20032;-81
2021/05/09 04:56:08;;;;;;;3.87;1.37;;;;;;;11.43;58.16;95777.94;5061790;28;20020;-81
2021/05/09 04:58:39;;;;;;;2.65;1.05;;;;;;;11.56;58.38;95772.09;5073068;28;20028;-81
2021/05/09 05:01:07;;;;;;;3.83;1.67;;;;;;;11.69;57.41;95779.41;5055410;28;20112;-81
2021/05/09 05:03:34;;;;;;;3.33;1.50;;;;;;;11.83;57.28;95781.25;5061171;28;20679;-81
2021/05/09 05:06:00;;;;;;;3.73;1.63;;;;;;;11.91;56.94;95777.78;5060427;28;20041;-82
2021/05/09 05:08:32;;;;;;;4.10;1.70;;;;;;;12.06;56.45;95775.97;5057397;28;20551;-81
2021/05/09 05:11:02;;;;;;;3.33;1.47;;;;;;;12.11;56.77;95780.72;5065422;28;20453;-81
2021/05/09 05:13:33;;;;;;;3.63;1.70;;;;;;;12.20;55.90;95771.69;5063158;28;20044;-81
2021/05/09 05:16:01;;;;;;;6.43;1.70;;;;;;;12.35;55.87;95772.53;5063749;28;20027;-81
2021/05/09 05:18:26;;;;;;;3.63;1.70;;;;;;;12.52;54.93;95777.66;5052279;28;20017;-81
2021/05/09 05:20:55;;;;;;;5.07;1.83;;;;;;;12.70;54.52;95768.34;5059934;28;20028;-80
2021/05/09 05:23:21;;;;;;;3.97;1.70;;;;;;;12.91;54.50;95769.41;5056300;28;20021;-80
2021/05/09 05:25:48;;;;;;;4.13;2.00;;;;;;;12.97;54.00;95774.75;5059437;28;20033;-80
2021/05/09 05:28:16;;;;;;;4.53;1.60;;;;;;;13.27;52.67;95772.06;5053564;28;20021;-80
2021/05/09 05:30:44;;;;;;;4.63;1.93;;;;;;;13.43;52.87;95769.19;5055701;28;20036;-81
2021/05/09 05:33:32;;;;;;;3.23;1.60;;;;;;;13.62;52.30;95774.88;5054510;28;20017;-81
2021/05/09 05:36:00;;;;;;;2.77;1.90;;;;;;;13.68;52.38;95782.00;5064068;28;20032;-82
2021/05/09 05:38:26;;;;;;;2.90;1.67;;;;;;;14.02;51.98;95773.38;5060291;28;20089;-81
2021/05/09 05:40:56;;;;;;;3.37;1.60;;;;;;;14.14;50.79;95778.94;5054404;28;20677;-81
2021/05/09 05:43:24;;;;;;;2.53;1.43;;;;;;;14.32;50.66;95779.28;5059468;28;20034;-80
2021/05/09 05:45:51;;;;;;;3.47;1.50;;;;;;;14.53;50.17;95780.25;5057114;28;20458;-81
2021/05/09 05:48:17;;;;;;;3.03;1.53;;;;;;;14.76;50.03;95780.78;5041906;28;20112;-81
2021/05/09 05:50:43;;;;;;;3.77;1.80;;;;;;;14.95;50.16;95783.72;5060292;28;20036;-81
2021/05/09 05:53:09;;;;;;;3.43;1.60;;;;;;;15.27;48.84;95782.19;5063679;28;20033;-81
2021/05/09 05:55:34;;;;;;;2.87;1.60;;;;;;;15.02;49.24;95781.91;5058831;28;20695;-83
2021/05/09 05:58:00;;;;;;;3.40;1.50;;;;;;;14.76;49.96;95790.56;5053871;28;20060;-81
2021/05/09 06:00:26;;;;;;;4.07;1.37;;;;;;;14.74;49.72;95790.75;5061837;28;20024;-81
2021/05/09 06:02:51;;;;;;;2.50;1.50;;;;;;;14.92;49.03;95784.09;5055273;28;20036;-82
2021/05/09 06:05:17;;;;;;;7.33;2.63;;;;;;;15.70;47.21;95787.22;5057513;28;20025;-81
2021/05/09 06:07:43;;;;;;;4.03;1.73;;;;;;;15.95;46.69;95777.63;5050879;28;20775;-81
2021/05/09 06:10:10;;;;;;;5.10;1.67;;;;;;;16.35;45.41;95774.16;5065447;28;20029;-81
2021/05/09 06:12:35;;;;;;;2.00;1.30;;;;;;;16.68;44.88;95774.09;5067034;28;20033;-81
2021/05/09 06:15:01;;;;;;;8.60;1.67;;;;;;;16.88;45.40;95768.75;5063883;28;20021;-81
2021/05/09 06:17:27;;;;;;;3.63;1.50;;;;;;;16.75;44.66;95766.94;5058846;28;20143;-81
2021/05/09 06:19:53;;;;;;;4.37;1.70;;;;;;;17.15;42.69;95770.25;5062960;28;20059;-81
2021/05/09 06:22:18;;;;;;;3.10;1.40;;;;;;;17.18;43.16;95764.53;5052151;28;20084;-82
2021/05/09 06:24:44;;;;;;;4.60;1.60;;;;;;;16.88;44.14;95771.41;5069632;28;20027;-80
2021/05/09 06:27:10;;;;;;;4.37;1.70;;;;;;;17.47;41.88;95772.97;5060275;28;20037;-80
2021/05/09 06:29:35;;;;;;;3.93;1.50;;;;;;;16.66;43.28;95765.50;5058243;28;20099;-81
2021/05/09 06:32:01;;;;;;;2.77;1.23;;;;;;;17.66;41.45;95768.53;5067293;28;20131;-83
2021/05/09 06:34:27;;;;;;;6.70;1.80;;;;;;;18.09;40.59;95765.19;5075830;28;20094;-81
2021/05/09 06:36:52;;;;;;;2.95;1.30;;;;;;;18.18;40.54;95760.41;5066775;28;20405;-82
2021/05/09 06:39:25;;;;;;;3.80;1.40;;;;;;;17.83;41.47;95766.22;5058178;28;20510;-81
2021/05/09 06:41:51;;;;;;;4.05;1.40;;;;;;;18.27;40.28;95769.75;5069652;28;20040;-80
2021/05/09 06:44:17;;;;;;;2.95;1.50;;;;;;;18.25;41.04;95769.16;5058332;28;20118;-80
2021/05/09 06:46:43;;;;;;;3.50;1.40;;;;;;;18.62;40.53;95759.38;5064832;28;20036;-80
2021/05/09 06:49:10;;;;;;;3.65;1.52;;;;;;;18.53;39.32;95758.84;5057688;28;20116;-80
2021/05/09 06:51:35;;;;;;;2.00;1.15;;;;;;;18.93;38.64;95763.75;5069870;28;20028;-81
2021/05/09 06:54:01;;;;;;;2.28;0.88;;;;;;;18.59;39.51;95759.81;5064132;28;20089;-81
2021/05/09 06:56:27;;;;;;;3.08;1.60;;;;;;;19.07;39.37;95762.56;5061566;28;20040;-81
2021/05/09 06:58:53;;;;;;;2.88;1.30;;;;;;;18.66;40.01;95765.06;5057256;28;20025;-79
2021/05/09 07:01:18;;;;;;;4.07;1.50;;;;;;;18.72;39.53;95759.69;5067243;28;20029;-80
2021/05/09 07:03:44;;;;;;;2.42;1.33;;;;;;;19.48;38.80;95763.69;5071718;28;20036;-80
2021/05/09 07:06:10;;;;;;;3.75;1.30;;;;;;;20.25;37.39;95757.59;5065247;28;20216;-80
2021/05/09 07:08:35;;;;;;;3.63;1.63;;;;;;;19.86;37.55;95753.72;5065229;28;20028;-80
2021/05/09 07:11:02;;;;;;;3.20;1.35;;;;;;;19.68;38.66;95754.59;5068525;28;20050;-80
2021/05/09 07:13:28;;;;;;;2.40;1.20;;;;;;;21.01;36.80;95755.00;5059198;28;20049;-81
2021/05/09 07:15:55;;;;;;;2.33;1.27;;;;;;;22.09;33.17;95750.56;5066720;28;20029;-81
2021/05/09 07:18:23;;;;;;;2.65;1.25;;;;;;;22.06;34.06;95754.53;5065223;28;20028;-81
2021/05/09 07:20:59;;;;;;;2.72;1.10;;;;;;;22.09;33.02;95746.00;5054757;28;20028;-82
2021/05/09 07:23:27;;;;;;;1.88;0.98;;;;;;;22.35;31.47;95744.56;5051165;28;20037;-80
2021/05/09 07:25:54;;;;;;;2.28;0.98;;;;;;;22.92;31.42;95745.34;5051488;28;20125;-80
2021/05/09 07:28:21;;;;;;;2.25;0.82;;;;;;;22.46;32.37;95739.38;5058261;28;20040;-79
2021/05/09 07:30:48;;;;;;;2.42;1.08;;;;;;;23.13;31.15;95741.06;5064179;28;20024;-80
2021/05/09 07:33:14;;;;;;;2.08;1.00;;;;;;;22.90;30.56;95744.78;5075304;28;20037;-80
2021/05/09 07:35:41;;;;;;;3.38;0.90;;;;;;;23.04;31.37;95740.72;5059626;28;20024;-80
2021/05/09 07:38:08;;;;;;;1.25;0.77;;;;;;;23.28;30.38;95738.56;5058859;28;20025;-80
2021/05/09 07:40:35;;;;;;;1.90;1.05;;;;;;;23.08;30.84;95744.50;5065187;28;20035;-80
2021/05/09 07:43:03;;;;;;;2.90;0.93;;;;;;;22.31;31.54;95742.63;5079760;28;20036;-80
2021/05/09 07:45:29;;;;;;;5.60;2.13;;;;;;;22.81;31.78;95739.06;5059169;28;20104;-82
2021/05/09 07:47:55;;;;;;;3.33;1.20;;;;;;;23.65;29.70;95730.63;5063586;28;20029;-80
2021/05/09 07:50:24;;;;;;;2.05;0.85;;;;;;;23.57;31.17;95732.97;5069655;28;20104;-83
2021/05/09 07:52:51;;;;;;;3.42;1.27;;;;;;;24.01;30.16;95733.69;5056550;28;20032;-82
2021/05/09 07:55:17;;;;;;;2.00;1.20;;;;;;;23.57;31.44;95733.75;5063605;28;20056;-83
2021/05/09 07:57:44;;;;;;;4.72;1.33;;;;;;;23.46;31.35;95732.84;5058635;28;20025;-82
2021/05/09 08:00:13;;;;;;;2.47;1.10;;;;;;;23.49;32.13;95728.88;5055622;28;20028;-82
2021/05/09 08:02:41;;;;;;;2.08;0.80;;;;;;;23.50;30.64;95731.28;5061778;28;20029;-82
2021/05/09 08:05:08;;;;;;;1.63;0.80;;;;;;;24.33;28.71;95724.78;5068855;28;20023;-83
2021/05/09 08:07:33;;;;;;;3.75;0.80;;;;;;;25.08;27.68;95714.69;5073532;28;20043;-84
2021/05/09 08:09:59;;;;;;;2.05;0.90;;;;;;;24.98;27.41;95722.72;5060567;28;20029;-82
2021/05/09 08:12:25;;;;;;;2.40;1.00;;;;;;;25.45;26.99;95711.88;5056663;28;20049;-82
2021/05/09 08:14:51;;;;;;;1.35;0.70;;;;;;;24.86;27.45;95714.88;5064528;28;20016;-83
2021/05/09 08:17:16;;;;;;;1.92;1.23;;;;;;;25.21;27.38;95710.75;5067644;28;20052;-82
2021/05/09 08:19:42;;;;;;;2.50;1.17;;;;;;;25.91;26.15;95711.97;5074802;28;20036;-82
2021/05/09 08:22:08;;;;;;;1.35;0.80;;;;;;;26.03;26.48;95709.81;5046515;28;20394;-83
2021/05/09 08:24:34;;;;;;;1.50;0.90;;;;;;;25.78;26.57;95712.47;5055722;28;20055;-84
2021/05/09 08:27:00;;;;;;;2.25;0.80;;;;;;;26.00;25.35;95702.28;5060290;28;21890;-81
2021/05/09 08:29:25;;;;;;;3.22;0.98;;;;;;;26.29;24.63;95709.78;5056988;28;20024;-82
2021/05/09 08:31:51;;;;;;;2.20;1.10;;;;;;;26.24;24.79;95704.41;5052719;28;20074;-82
2021/05/09 08:34:18;;;;;;;1.00;0.60;;;;;;;26.28;26.09;95706.28;5053210;28;20017;-84
2021/05/09 08:36:43;;;;;;;2.22;1.10;;;;;;;26.00;25.95;95704.97;5064470;28;20024;-81
2021/05/09 08:39:09;;;;;;;1.25;0.80;;;;;;;26.88;24.78;95702.94;5058084;28;20502;-81
2021/05/09 08:41:42;;;;;;;2.72;0.95;;;;;;;26.72;25.31;95699.47;5047626;28;20032;-81
2021/05/09 08:44:10;;;;;;;2.42;1.08;;;;;;;27.34;23.78;95705.47;5056547;28;20029;-82
2021/05/09 08:46:37;;;;;;;2.42;1.10;;;;;;;25.90;25.79;95712.25;5058151;28;20093;-82
2021/05/09 08:49:05;;;;;;;1.35;0.98;;;;;;;26.29;25.78;95704.41;5060179;28;20033;-82
2021/05/09 08:51:32;;;;;;;3.42;1.30;;;;;;;26.98;25.25;95698.31;5058820;28;20028;-82
2021/05/09 08:53:58;;;;;;;2.33;1.00;;;;;;;26.94;26.26;95696.44;5052372;28;20063;-82
2021/05/09 08:56:27;;;;;;;1.85;1.08;;;;;;;25.95;25.77;95696.06;5059348;28;20107;-82
2021/05/09 08:58:53;;;;;;;1.30;0.90;;;;;;;25.89;26.33;95695.28;5040988;28;20033;-83
2021/05/09 09:01:19;;;;;;;1.67;0.90;;;;;;;25.38;26.65;95695.16;5053243;28;20023;-82
2021/05/09 09:03:48;;;;;;;2.25;0.90;;;;;;;26.27;26.00;95693.09;5065017;28;20470;-83
2021/05/09 09:06:18;;;;;;;1.80;0.80;;;;;;;26.79;25.86;95683.81;5060776;28;20104;-82
2021/05/09 09:08:52;;;;;;;3.33;1.00;;;;;;;27.50;24.90;95680.81;5064866;28;20039;-83
2021/05/09 09:11:28;;;;;;;2.55;1.00;;;;;;;26.87;25.55;95677.06;5067631;28;20039;-82
2021/05/09 09:14:09;;;;;;;2.35;1.00;;;;;;;27.16;24.54;95682.59;5067694;28;20024;-81
2021/05/09 09:16:36;;;;;;;3.95;1.10;;;;;;;27.96;23.11;95669.66;5060676;28;20044;-81
2021/05/09 09:19:14;;;;;;;1.52;0.93;;;;;;;27.98;23.05;95666.69;5051958;28;20040;-82
2021/05/09 09:21:41;;;;;;;1.63;1.00;;;;;;;28.48;22.46;95661.13;5067665;28;20027;-82
2021/05/09 09:24:11;;;;;;;3.95;1.02;;;;;;;28.42;22.38;95666.56;5054230;28;20044;-82
2021/05/09 09:26:52;;;;;;;3.50;1.60;;;;;;;28.98;22.02;95653.50;5051444;28;20140;-82
2021/05/09 09:29:29;;;;;;;3.10;1.02;;;;;;;28.12;22.66;95656.81;5055038;28;20035;-82
2021/05/09 09:32:03;;;;;;;2.58;1.10;;;;;;;28.11;23.72;95657.94;5061628;28;20454;-81
2021/05/09 09:34:45;;;;;;;3.15;1.13;;;;;;;28.22;23.41;95649.72;5060936;28;20029;-82
2021/05/09 09:37:14;;;;;;;2.45;1.05;;;;;;;28.16;23.42;95651.66;5067699;28;20079;-83
2021/05/09 09:39:47;;;;;;;2.50;1.10;;;;;;;28.14;23.48;95654.66;5068119;28;20028;-82
2021/05/09 09:42:14;;;;;;;2.72;1.05;;;;;;;28.14;24.46;95645.75;5090855;28;20060;-83
2021/05/09 09:44:40;;;;;;;2.85;1.20;;;;;;;28.33;23.59;95648.50;5063756;28;20387;-83
2021/05/09 09:47:06;;;;;;;2.90;1.48;;;;;;;27.89;24.44;95652.97;5051796;28;20036;-84
2021/05/09 09:49:36;;;;;;;2.22;1.15;;;;;;;28.72;23.82;95640.28;5082120;28;20025;-83
2021/05/09 09:52:07;;;;;;;1.45;1.05;;;;;;;28.84;24.35;95640.66;5069945;28;20036;-82
2021/05/09 09:54:38;;;;;;;3.78;1.10;;;;;;;29.26;23.37;95644.47;5059952;28;20039;-82
2021/05/09 09:57:07;;;;;;;2.75;1.20;;;;;;;29.48;22.32;95627.63;5067356;28;20086;-83
2021/05/09 09:59:34;;;;;;;3.08;1.83;;;;;;;29.15;22.25;95626.75;5061651;28;20025;-81
2021/05/09 10:02:02;;;;;;;4.13;1.42;;;;;;;28.89;22.98;95631.66;5059418;28;20025;-80
2021/05/09 10:04:28;;;;;;;1.77;1.25;;;;;;;28.78;22.87;95633.72;5061685;28;20406;-81
2021/05/09 10:06:53;;;;;;;1.58;1.00;;;;;;;29.97;22.17;95620.88;5064962;28;20032;-80
2021/05/09 10:09:19;;;;;;;2.08;1.30;;;;;;;29.78;22.23;95617.44;5061411;28;20051;-80
2021/05/09 10:11:44;;;;;;;4.00;2.00;;;;;;;29.76;21.85;95609.59;5062871;28;20029;-80
2021/05/09 10:14:10;;;;;;;4.00;1.20;;;;;;;30.95;20.53;95606.31;5056180;28;20079;-80
2021/05/09 10:16:49;;;;;;;1.55;0.90;;;;;;;30.32;21.45;95607.84;5064783;28;20495;-80
2021/05/09 10:19:16;;;;;;;3.00;1.00;;;;;;;29.98;21.45;95603.53;5058766;28;20063;-80
2021/05/09 10:21:43;;;;;;;2.85;1.00;;;;;;;29.76;21.05;95604.19;5046626;28;20035;-80
2021/05/09 10:24:15;;;;;;;2.13;1.25;;;;;;;29.24;22.13;95600.66;5049063;28;20033;-79
2021/05/09 10:26:48;;;;;;;3.40;1.25;;;;;;;29.52;21.76;95590.72;5063208;28;20033;-80
2021/05/09 10:29:50;;;;;;;1.77;1.00;;;;;;;28.36;21.99;95600.06;5058856;28;20513;-79
2021/05/09 10:32:18;;;;;;;2.58;1.10;;;;;;;30.10;21.37;95594.13;5018416;28;20128;-81
2021/05/09 10:34:56;;;;;;;7.40;4.35;;;;;;;29.88;21.11;95582.03;5058109;28;20040;-80
2021/05/09 10:40:36;;;;;;;2.35;0.95;;;;;;;28.08;22.43;95585.50;5066324;28;20505;-80
2021/05/09 10:43:02;;;;;;;2.90;1.33;;;;;;;29.01;22.29;95585.28;5064869;28;20055;-80
2021/05/09 10:45:40;;;;;;;1.40;0.90;;;;;;;29.17;22.07;95583.94;5064415;28;20028;-80
2021/05/09 10:48:19;;;;;;;2.53;1.20;;;;;;;30.08;20.96;95580.88;5069866;28;20025;-80
2021/05/09 10:50:44;;;;;;;1.85;0.90;;;;;;;29.58;21.33;95588.75;5049056;28;20041;-80
2021/05/09 10:53:30;;;;;;;3.05;1.20;;;;;;;29.51;21.00;95580.16;5071116;28;20542;-80
2021/05/09 10:55:57;;;;;;;1.90;1.20;;;;;;;30.23;20.49;95580.59;5069441;28;20049;-80
2021/05/09 10:58:56;;;;;;;2.13;0.77;;;;;;;30.19;20.87;95574.16;5056114;28;20025;-80
2021/05/09 11:01:27;;;;;;;3.53;1.30;;;;;;;29.93;20.23;95573.00;5020282;28;20041;-81
2021/05/09 11:03:58;;;;;;;4.40;2.40;;;;;;;30.13;20.00;95567.19;5056219;28;20020;-80
2021/05/09 11:06:27;;;;;;;5.47;1.73;;;;;;;29.70;19.45;95559.28;5067322;28;20043;-80
2021/05/09 11:09:22;;;;;;;4.53;2.55;;;;;;;29.21;19.61;95566.03;5066792;28;20059;-79
2021/05/09 11:11:54;;;;;;;3.95;1.60;;;;;;;29.86;18.52;95557.13;5076639;28;20029;-80
2021/05/09 11:14:20;;;;;;;;;;;;;;;30.02;18.64;95554.94;5068716;28;20096;-80
2021/05/09 11:16:58;;;;;;;2.72;1.20;;;;;;;30.06;20.11;95551.31;5066838;28;19912;-80
2021/05/09 11:19:33;;;;;;;7.15;3.30;;;;;;;29.82;19.04;95545.28;5074667;28;20040;-79
2021/05/09 11:21:58;;;;;;;4.43;1.90;;;;;;;29.84;19.12;95551.19;5079630;28;20126;-79
2021/05/09 11:24:32;;;;;;;5.13;1.85;;;;;;;30.29;18.94;95544.13;5068785;28;20068;-79
2021/05/09 11:27:03;;;;;;;6.07;2.63;;;;;;;30.38;19.10;95541.50;5053330;28;20034;-80
2021/05/09 11:29:29;;;;;;;4.28;2.08;;;;;;;30.38;21.36;95541.50;5055494;28;20115;-80
2021/05/09 11:32:19;;;;;;;9.68;6.53;;;;;;;29.92;21.23;95534.25;5068427;28;20605;-80
2021/05/09 11:34:51;;;;;;;2.70;1.50;;;;;;;29.91;20.86;95537.25;5061488;28;20612;-80
2021/05/09 11:37:17;;;;;;;7.43;2.40;;;;;;;30.08;20.98;95532.06;5064996;28;20085;-80
2021/05/09 11:39:43;;;;;;;3.10;1.20;;;;;;;30.07;21.57;95531.22;5075808;28;20025;-80
2021/05/09 11:42:15;;;;;;;1.90;1.10;;;;;;;29.58;21.37;95534.56;5064850;28;20407;-80
2021/05/09 11:44:42;;;;;;;4.50;2.22;;;;;;;30.68;20.08;95526.50;5061397;28;20083;-80